Terminal Aerodrome Forecast
Issued by NWS

Home | Current Version | Previous Version | Text Only | Print | Product List | Glossary On
Versions: 1 2 3 4 5 6 7 8 9 10 11 12 13 14 15 16 17 18 19 20 21 22 23 24 25 26 27 28 29
000
FTUS45 KBOU 151137
TAFAPA
TAF
KAPA 151137Z 1512/1612 21010KT P6SM FEW100 SCT200
     FM151600 35011KT P6SM FEW070 BKN120
     FM152200 03011KT P6SM VCSH SCT050 BKN080
     FM160200 03013G20KT 2SM -SN OVC010
     FM160500 11008KT P6SM VCSH BKN012
     FM160900 15009KT P6SM FEW010=

USA.gov is the U.S. government's official web portal to all federal, state and local government web resources and services.